Time;durP1;ratioP1;P1;durP2;ratioP2;P2;SDS_P1;SDS_P2;PMS_P1;PMS_P2;Temp;Humidity;BMP_temperature;BMP_pressure;BME280_temperature;BME280_humidity;BME280_pressure;Samples;Min_cycle;Max_cycle;Signal;HPM_P1;HPM_P2
2022/03/10 00:00:04;;;;;;;;;;;;;;;8.38;43.10;101519.50;2142651;90;25753;-78
2022/03/10 00:03:30;;;;;;;6.85;4.92;;;;;;;8.36;43.08;101526.28;2138770;90;25388;-75
2022/03/10 00:07:00;;;;;;;6.90;4.80;;;;;;;8.29;43.07;101526.38;2075781;95;25794;-75
2022/03/10 00:10:41;;;;;;;5.72;5.00;;;;;;;8.25;43.07;101529.63;2058525;95;26161;-76
2022/03/10 00:14:17;;;;;;;5.35;4.70;;;;;;;8.22;43.08;101534.67;2076228;93;25706;-76
2022/03/10 00:17:38;;;;;;;5.80;4.87;;;;;;;8.20;43.04;101536.31;2076708;95;25830;-74
2022/03/10 00:21:03;;;;;;;6.53;5.33;;;;;;;8.17;43.02;101537.86;2076687;95;26063;-74
2022/03/10 00:24:50;;;;;;;6.60;5.10;;;;;;;8.14;43.00;101538.59;2064685;94;25844;-76
2022/03/10 00:28:24;;;;;;;7.53;4.83;;;;;;;8.11;42.96;101538.84;2062766;93;25630;-75
2022/03/10 00:32:09;;;;;;;;;;;;;;;;;;;;;
2022/03/10 00:35:26;;;;;;;6.62;5.33;;;;;;;8.04;42.97;101551.50;2038410;94;25772;-75
2022/03/10 00:39:05;;;;;;;7.42;5.65;;;;;;;8.01;42.94;101548.74;2070286;95;25779;-74
2022/03/10 00:42:25;;;;;;;8.43;6.43;;;;;;;7.98;42.94;101553.77;2070420;95;25825;-75
2022/03/10 00:45:46;;;;;;;9.30;4.90;;;;;;;7.94;42.94;101557.02;2071891;95;25723;-75
2022/03/10 00:49:07;;;;;;;6.33;5.13;;;;;;;7.91;42.90;101564.65;2072194;95;35260;-76
2022/03/10 00:52:28;;;;;;;5.95;5.10;;;;;;;7.89;42.91;101567.97;2072002;95;25782;-76
2022/03/10 00:55:56;;;;;;;5.25;4.67;;;;;;;7.86;42.89;101569.09;2071685;95;25919;-74
2022/03/10 00:59:22;;;;;;;;;;;;;;;7.84;42.84;101582.02;2104971;92;25904;-73
2022/03/10 01:03:00;;;;;;;6.83;5.28;;;;;;;7.81;42.84;101586.63;2124188;91;25957;-74
2022/03/10 01:06:47;;;;;;;6.83;5.83;;;;;;;7.78;42.85;101597.25;2165474;89;25777;-73
2022/03/10 01:10:32;;;;;;;5.40;4.87;;;;;;;7.73;42.84;101591.83;2135158;91;25805;-75
2022/03/10 01:14:06;;;;;;;7.15;5.97;;;;;;;7.71;42.83;101596.03;2157871;89;25758;-73
2022/03/10 01:18:16;;;;;;;5.87;5.35;;;;;;;7.68;42.82;101602.34;2198503;85;25875;-76
2022/03/10 01:21:41;;;;;;;5.47;4.62;;;;;;;7.66;42.80;101603.06;2194547;88;25876;-75
2022/03/10 01:25:27;;;;;;;9.10;6.15;;;;;;;7.63;42.81;101606.78;2196924;88;25760;-81
2022/03/10 01:29:02;;;;;;;10.28;6.45;;;;;;;7.59;42.80;101608.31;2134151;92;26174;-81
2022/03/10 01:32:51;;;;;;;6.67;5.20;;;;;;;7.57;42.81;101612.55;2080891;92;25839;-75
2022/03/10 01:36:20;;;;;;;6.12;4.90;;;;;;;7.55;42.78;101621.53;2063801;94;25852;-75
2022/03/10 01:39:44;;;;;;;7.05;5.22;;;;;;;7.52;42.74;101630.44;2065805;94;25709;-74
2022/03/10 01:43:30;;;;;;;11.22;5.78;;;;;;;7.50;42.75;101632.48;2065258;94;25866;-78
2022/03/10 01:46:57;;;;;;;6.60;5.30;;;;;;;7.48;42.74;101637.58;2066022;94;26404;-74
2022/03/10 01:50:27;;;;;;;6.53;5.00;;;;;;;7.45;42.73;101637.39;2066095;95;25778;-74
2022/03/10 01:54:06;;;;;;;5.80;4.80;;;;;;;7.43;42.73;101636.84;2065719;94;25789;-74
2022/03/10 01:57:30;;;;;;;6.37;5.20;;;;;;;7.42;42.70;101641.52;2065470;94;25802;-74
2022/03/10 02:00:57;;;;;;;6.60;5.20;;;;;;;7.39;42.70;101651.34;2066099;95;25938;-74
2022/03/10 02:04:28;;;;;;;5.67;5.05;;;;;;;7.36;42.71;101652.47;2065230;94;26412;-75
2022/03/10 02:12:22;;;;;;;6.80;5.00;;;;;;;7.32;42.67;101660.48;2129633;91;26073;-74
2022/03/10 02:20:01;;;;;;;5.97;5.37;;;;;;;7.26;42.65;101665.72;2007608;97;25762;-74
2022/03/10 02:27:03;;;;;;;6.07;5.47;;;;;;;7.20;42.63;101674.03;1996889;97;25828;-76
2022/03/10 02:30:38;;;;;;;6.12;5.50;;;;;;;7.19;42.63;101670.03;2042518;94;25682;-75
2022/03/10 02:34:10;;;;;;;5.87;5.28;;;;;;;7.17;42.63;101681.63;2043556;94;25838;-77
2022/03/10 02:38:00;;;;;;;6.33;5.05;;;;;;;7.15;42.61;101689.72;2040066;94;25708;-75
2022/03/10 02:41:30;;;;;;;6.10;4.78;;;;;;;7.13;42.59;101692.64;2022856;96;25795;-74
2022/03/10 02:48:52;;;;;;;5.28;4.67;;;;;;;7.08;42.57;101695.35;1981176;98;25930;-75
2022/03/10 02:52:25;;;;;;;6.25;5.03;;;;;;;7.06;42.56;101708.24;1981272;99;25794;-79
2022/03/10 02:55:51;;;;;;;7.40;5.40;;;;;;;7.03;42.56;101708.47;1981431;98;26505;-77
2022/03/10 02:59:20;;;;;;;5.65;5.03;;;;;;;7.02;42.55;101715.36;1980135;98;26004;-81
2022/03/10 03:02:49;;;;;;;5.50;4.80;;;;;;;6.99;42.53;101722.95;2004505;97;25706;-75
2022/03/10 03:09:21;;;;;;;6.73;5.83;;;;;;;6.99;42.50;101732.02;2494680;79;28020;-80
2022/03/10 03:12:59;;;;;;;9.48;6.33;;;;;;;6.93;42.49;101736.84;2418496;80;25717;-78
2022/03/10 03:16:29;;;;;;;6.22;5.37;;;;;;;6.90;42.49;101740.55;2410612;82;25247;-80
2022/03/10 03:20:00;;;;;;;6.62;5.40;;;;;;;6.88;42.49;101746.43;2462090;80;25644;-80
2022/03/10 03:23:28;;;;;;;8.83;5.00;;;;;;;6.86;42.47;101750.23;2461030;80;25628;-78
2022/03/10 03:26:55;;;;;;;7.33;6.12;;;;;;;6.84;42.49;101754.42;2460367;80;25680;-75
2022/03/10 03:30:36;;;;;;;;;;;;;;;;;;;;;
2022/03/10 03:34:01;;;;;;;7.30;5.37;;;;;;;6.79;42.42;101764.94;2446382;80;25653;-80
2022/03/10 03:37:46;;;;;;;7.00;5.37;;;;;;;6.77;42.42;101764.82;2449668;80;25818;-81
2022/03/10 03:41:11;;;;;;;5.85;4.95;;;;;;;6.75;42.39;101769.41;2448795;80;25671;-79
2022/03/10 03:44:42;;;;;;;7.80;5.58;;;;;;;6.73;42.38;101772.33;2451120;80;25808;-76
2022/03/10 03:48:47;;;;;;;8.05;5.62;;;;;;;6.69;42.36;101779.02;2385014;81;25297;-77
2022/03/10 03:52:29;;;;;;;8.98;5.37;;;;;;;6.66;42.36;101786.61;2433174;81;25658;-75
2022/03/10 03:56:03;;;;;;;5.95;5.33;;;;;;;6.65;42.33;101798.16;2423835;81;25686;-75
2022/03/10 03:59:40;;;;;;;7.95;6.10;;;;;;;6.62;42.33;101801.47;2341144;84;25766;-78
2022/03/10 04:03:09;;;;;;;5.85;4.97;;;;;;;6.59;42.30;101799.58;2370471;83;25638;-74
2022/03/10 04:06:43;;;;;;;6.78;5.85;;;;;;;6.57;42.27;101802.87;2354939;84;26242;-74
2022/03/10 04:10:21;;;;;;;6.33;5.00;;;;;;;6.55;42.25;101802.79;2336154;83;25794;-75
2022/03/10 04:14:01;;;;;;;8.03;4.87;;;;;;;6.51;42.22;101804.66;2221359;87;25990;-75
2022/03/10 04:17:33;;;;;;;7.15;5.65;;;;;;;6.49;42.17;101815.35;2217906;89;25911;-79
2022/03/10 04:21:14;;;;;;;6.33;5.00;;;;;;;6.46;42.18;101812.56;2197903;89;26021;-74
2022/03/10 04:24:46;;;;;;;7.70;5.55;;;;;;;6.44;42.16;101814.55;2126456;90;25756;-75
2022/03/10 04:28:22;;;;;;;6.75;5.12;;;;;;;6.41;42.13;101821.72;2190181;90;25863;-79
2022/03/10 04:31:51;;;;;;;6.08;4.90;;;;;;;6.37;42.09;101825.82;2189291;89;25926;-81
2022/03/10 04:35:37;;;;;;;6.12;5.45;;;;;;;6.36;42.05;101829.63;2189478;87;25668;-75
2022/03/10 04:39:03;;;;;;;5.97;5.37;;;;;;;6.33;41.98;101826.83;2209085;87;32909;-83
2022/03/10 04:42:48;;;;;;;;;;;;;;;;;;;;;
2022/03/10 04:46:10;;;;;;;8.78;6.50;;;;;;;6.27;41.95;101837.69;2072807;94;25829;-81
2022/03/10 04:49:54;;;;;;;6.70;5.47;;;;;;;6.25;41.92;101845.78;2071319;94;26002;-75
2022/03/10 04:58:00;;;;;;;;;;;;;;;;;;;;;
2022/03/10 05:01:31;;;;;;;7.42;5.00;;;;;;;6.18;41.82;101854.36;2169984;91;25854;-76
2022/03/10 05:05:17;;;;;;;6.55;4.70;;;;;;;6.16;41.77;101856.83;2171799;88;25771;-74
2022/03/10 05:08:51;;;;;;;5.37;4.83;;;;;;;6.14;41.72;101861.92;2179718;85;26401;-74
2022/03/10 05:12:19;;;;;;;5.62;4.55;;;;;;;6.12;41.71;101873.86;2237059;86;25734;-74
2022/03/10 05:15:57;;;;;;;4.72;4.12;;;;;;;6.12;41.66;101876.85;2249821;87;25863;-78
2022/03/10 05:19:33;;;;;;;6.08;4.90;;;;;;;6.11;41.61;101886.31;2275536;85;25888;-74
2022/03/10 05:23:06;;;;;;;4.50;4.03;;;;;;;6.12;41.59;101896.27;2163438;89;25782;-75
2022/03/10 05:26:26;;;;;;;5.37;4.10;;;;;;;6.12;41.53;101902.75;2165469;89;26074;-77
2022/03/10 05:29:58;;;;;;;6.03;4.17;;;;;;;6.12;41.50;101904.93;2165684;91;25846;-75
2022/03/10 05:33:25;;;;;;;5.12;4.12;;;;;;;6.13;41.47;101918.37;2128708;91;25323;-75
2022/03/10 05:36:46;;;;;;;5.62;3.90;;;;;;;6.15;41.43;101929.73;2132101;92;25832;-75
2022/03/10 05:40:37;;;;;;;5.47;3.63;;;;;;;6.17;41.34;101930.23;2131168;90;25919;-77
2022/03/10 05:44:00;;;;;;;4.80;4.12;;;;;;;6.19;41.36;101936.42;2132219;91;25744;-76
2022/03/10 05:47:41;;;;;;;4.83;4.05;;;;;;;6.21;41.21;101943.88;2148631;90;25375;-74
2022/03/10 05:51:16;;;;;;;5.55;4.05;;;;;;;6.22;41.12;101943.09;2098090;93;25974;-75
2022/03/10 05:54:38;;;;;;;5.03;4.35;;;;;;;6.23;41.07;101945.77;2128464;92;25713;-77
2022/03/10 05:58:14;;;;;;;4.35;3.95;;;;;;;6.25;40.97;101953.66;2135373;92;25737;-77
2022/03/10 06:01:54;;;;;;;4.75;4.28;;;;;;;6.27;40.96;101959.82;2075408;95;25835;-76
2022/03/10 06:05:24;;;;;;;8.75;4.37;;;;;;;6.28;40.88;101966.82;2068785;94;33027;-79
2022/03/10 06:08:51;;;;;;;5.80;4.30;;;;;;;6.31;40.83;101966.63;2062419;91;26057;-76
2022/03/10 06:12:30;;;;;;;6.90;3.75;;;;;;;6.34;40.78;101977.16;2107097;92;25753;-77
2022/03/10 06:16:06;;;;;;;6.78;4.17;;;;;;;6.38;40.72;101980.47;2107126;92;25746;-75
2022/03/10 06:19:37;;;;;;;5.75;3.83;;;;;;;6.43;40.64;101998.01;2104742;92;25766;-78
2022/03/10 06:23:15;;;;;;;7.75;3.65;;;;;;;6.44;40.59;101995.91;2103377;93;25790;-75
2022/03/10 06:26:38;;;;;;;10.00;4.17;;;;;;;6.46;40.53;102002.09;2103373;92;25710;-82
2022/03/10 06:30:17;;;;;;;7.17;3.47;;;;;;;6.50;40.49;102010.57;2147398;89;25306;-80
2022/03/10 06:33:50;;;;;;;4.93;3.80;;;;;;;6.55;40.44;102011.78;2155715;91;25779;-76
2022/03/10 06:37:18;;;;;;;5.20;4.33;;;;;;;6.58;40.40;102019.36;2157054;90;25728;-75
2022/03/10 06:40:57;;;;;;;5.03;4.03;;;;;;;6.62;40.40;102014.88;2154661;91;25858;-75
2022/03/10 06:44:40;;;;;;;5.22;4.03;;;;;;;6.66;40.44;102018.56;2138395;91;25699;-76
2022/03/10 06:48:20;;;;;;;5.25;4.22;;;;;;;6.71;40.39;102026.22;2156598;91;31316;-75
2022/03/10 06:55:25;;;;;;;5.72;4.22;;;;;;;6.82;40.37;102034.73;2141897;91;25767;-76
2022/03/10 06:58:48;;;;;;;6.25;4.10;;;;;;;6.87;40.39;102038.50;2155314;90;25787;-76
2022/03/10 07:02:20;;;;;;;4.30;3.60;;;;;;;6.93;40.27;102035.41;2170802;89;25751;-77
2022/03/10 07:05:46;;;;;;;6.33;4.03;;;;;;;6.96;40.31;102041.70;2153802;90;26024;-75
2022/03/10 07:09:21;;;;;;;4.60;3.67;;;;;;;7.02;40.24;102045.98;2161726;87;25711;-77
2022/03/10 07:12:47;;;;;;;3.98;3.47;;;;;;;7.08;40.17;102041.17;2255359;87;25801;-80
2022/03/10 07:16:15;;;;;;;6.20;4.17;;;;;;;7.14;40.05;102042.38;2270581;87;25816;-75
2022/03/10 07:19:36;;;;;;;7.08;3.75;;;;;;;7.19;39.83;102046.14;2151638;91;25840;-77
2022/03/10 07:22:59;;;;;;;3.50;3.20;;;;;;;7.24;39.84;102043.05;2186358;89;25798;-76
2022/03/10 07:26:35;;;;;;;3.65;3.33;;;;;;;7.29;39.81;102038.17;2214725;88;25849;-80
2022/03/10 07:30:01;;;;;;;3.75;3.45;;;;;;;7.35;39.77;102045.02;2270378;86;25761;-74
2022/03/10 07:33:32;;;;;;;3.85;3.12;;;;;;;7.41;39.66;102054.91;2277318;85;25777;-75
2022/03/10 07:36:59;;;;;;;3.10;2.80;;;;;;;7.47;39.62;102057.89;2163242;91;25833;-75
2022/03/10 07:40:20;;;;;;;3.85;3.40;;;;;;;7.54;39.69;102056.17;2163533;91;25972;-76
2022/03/10 07:43:48;;;;;;;3.37;3.08;;;;;;;7.61;39.60;102060.05;2163805;91;25841;-79
2022/03/10 07:47:21;;;;;;;9.00;3.98;;;;;;;7.72;39.54;102057.30;2158662;90;25865;-76
2022/03/10 07:50:52;;;;;;;7.08;4.10;;;;;;;10.29;38.83;102059.77;2161965;89;25757;-74
2022/03/10 07:54:25;;;;;;;7.00;3.52;;;;;;;14.25;35.77;102059.64;2160393;89;25992;-76
2022/03/10 07:58:04;;;;;;;7.37;3.55;;;;;;;17.39;32.98;102063.57;2254524;87;26008;-76
2022/03/10 08:01:44;;;;;;;4.10;3.08;;;;;;;19.95;30.34;102075.57;2356293;83;25705;-76
2022/03/10 08:05:18;;;;;;;3.75;3.05;;;;;;;22.30;27.84;102079.52;2356581;84;25786;-77
2022/03/10 08:08:50;;;;;;;5.30;3.95;;;;;;;24.34;25.88;102088.94;2422513;79;25664;-76
2022/03/10 08:12:10;;;;;;;3.62;2.83;;;;;;;26.20;24.04;102088.90;2428725;81;25638;-79
2022/03/10 08:15:42;;;;;;;4.12;3.30;;;;;;;27.80;22.47;102104.93;2430653;80;26265;-79
2022/03/10 08:19:17;;;;;;;3.30;3.00;;;;;;;29.14;21.21;102105.83;2305481;85;25838;-76
2022/03/10 08:22:43;;;;;;;3.72;3.27;;;;;;;30.35;20.15;102112.24;2306522;85;25230;-76
2022/03/10 08:30:06;;;;;;;2.70;2.50;;;;;;;32.16;18.61;102120.71;2073071;95;25897;-81
2022/03/10 08:33:37;;;;;;;2.47;2.27;;;;;;;33.00;18.09;102111.89;2020355;97;25810;-79
2022/03/10 08:37:20;;;;;;;;;;;;;;;;;;;;;
2022/03/10 08:40:40;;;;;;;4.17;2.77;;;;;;;34.80;16.87;102112.55;1906132;102;25889;-84
2022/03/10 08:44:20;;;;;;;3.40;2.50;;;;;;;35.47;16.45;102117.63;1897697;104;26347;-83
2022/03/10 08:47:54;;;;;;;2.17;1.98;;;;;;;36.11;16.03;102122.30;1886169;104;27050;-82
2022/03/10 08:51:26;;;;;;;2.08;1.98;;;;;;;36.71;15.75;102124.28;1930161;100;25961;-82
2022/03/10 08:54:50;;;;;;;1.77;1.67;;;;;;;37.21;15.35;102119.02;1934431;102;25430;-81
2022/03/10 09:07:35;;;;;;;1.95;1.60;;;;;;;38.40;14.76;102130.98;1910820;101;26334;-82
2022/03/10 09:11:02;;;;;;;1.62;1.50;;;;;;;38.80;14.67;102126.07;1932561;102;26494;-82
2022/03/10 09:14:35;;;;;;;1.70;1.60;;;;;;;39.05;14.53;102124.80;1930227;98;26449;-83
2022/03/10 09:23:42;;;;;;;2.95;1.75;;;;;;;39.59;14.25;102124.64;1898827;102;25980;-78
2022/03/10 09:27:09;;;;;;;1.92;1.50;;;;;;;39.92;12.69;102116.34;1908132;102;25942;-76
2022/03/10 09:30:51;;;;;;;1.77;1.50;;;;;;;39.88;12.45;102115.70;1961478;100;25907;-79
2022/03/10 09:34:23;;;;;;;1.55;1.45;;;;;;;39.88;13.16;102110.74;2042347;95;25827;-83
2022/03/10 09:37:52;;;;;;;1.70;1.60;;;;;;;39.86;13.44;102114.97;2121072;92;25885;-78
2022/03/10 09:44:53;;;;;;;1.27;1.10;;;;;;;39.81;13.18;102112.18;2021482;95;25893;-83
2022/03/10 09:48:28;;;;;;;5.62;1.60;;;;;;;39.82;13.27;102109.32;2018889;96;25947;-84
2022/03/10 09:51:57;;;;;;;3.47;1.45;;;;;;;39.80;13.35;102108.58;2024795;96;26525;-82
2022/03/10 09:55:39;;;;;;;;;;;;;;;;;;;;;
2022/03/10 09:59:48;;;;;;;1.22;1.15;;;;;;;39.68;13.08;102108.94;2025359;96;25850;-77
2022/03/10 10:03:12;;;;;;;1.22;1.12;;;;;;;39.88;13.00;102115.70;2019922;96;25802;-76
2022/03/10 10:07:10;;;;;;;2.15;1.55;;;;;;;40.04;12.85;102122.28;2049008;94;25759;-81
2022/03/10 10:10:35;;;;;;;2.33;1.87;;;;;;;40.18;12.63;102129.48;2051491;95;26452;-75
2022/03/10 10:14:06;;;;;;;1.87;1.70;;;;;;;40.04;11.73;102130.48;2029608;96;25837;-77
2022/03/10 10:17:32;;;;;;;1.75;1.65;;;;;;;39.71;11.39;102134.31;2028245;96;25770;-79
2022/03/10 10:21:03;;;;;;;3.35;1.57;;;;;;;39.82;11.32;102133.91;2004142;98;25802;-87
2022/03/10 10:24:35;;;;;;;3.90;1.72;;;;;;;39.99;10.59;102138.63;2001606;97;25797;-85
2022/03/10 10:27:58;;;;;;;2.20;2.00;;;;;;;38.17;8.48;102127.06;2017597;96;25770;-82
2022/03/10 10:31:34;;;;;;;2.62;2.02;;;;;;;36.22;8.17;102119.46;2038679;95;25788;-86
2022/03/10 10:35:22;;;;;;;2.33;2.02;;;;;;;34.20;7.62;102110.55;2070888;95;25801;-85
2022/03/10 10:38:54;;;;;;;4.03;2.70;;;;;;;32.41;8.26;102105.30;2003305;96;25960;-87
2022/03/10 10:42:30;;;;;;;;;;;;;;;;;;;;;
2022/03/10 10:49:33;;;;;;;2.70;2.50;;;;;;;30.05;8.62;102100.13;1926965;101;25827;-81
2022/03/10 10:56:37;;;;;;;5.42;2.35;;;;;;;29.31;9.24;102090.59;1861798;104;25861;-81
2022/03/10 11:00:10;;;;;;;2.87;2.20;;;;;;;29.20;9.22;102088.67;1874783;105;25739;-81
2022/03/10 11:03:43;;;;;;;3.72;2.45;;;;;;;29.14;9.72;102085.68;1875091;103;26114;-82
2022/03/10 11:07:00;;;;;;;5.47;2.33;;;;;;;28.61;9.26;102085.22;1826105;107;25851;-81
2022/03/10 11:10:43;;;;;;;3.40;2.52;;;;;;;28.25;9.22;102097.70;1860530;104;25900;-81
2022/03/10 11:14:15;;;;;;;3.37;2.10;;;;;;;27.63;9.49;102086.02;1841663;105;26463;-81
2022/03/10 11:18:03;;;;;;;3.20;2.72;;;;;;;26.95;9.50;102078.36;1840841;105;25811;-80
2022/03/10 11:22:15;;;;;;;3.00;2.70;;;;;;;26.58;9.76;102078.09;1882049;104;25832;-85
2022/03/10 11:26:31;;;;;;;6.55;2.70;;;;;;;26.35;9.64;102072.61;1902080;103;25904;-81
2022/03/10 11:29:55;;;;;;;3.52;2.62;;;;;;;25.88;10.16;102082.19;1923169;102;25816;-80
2022/03/10 11:33:30;;;;;;;2.87;2.62;;;;;;;25.76;9.82;102077.44;1927330;101;26509;-79
2022/03/10 11:36:57;;;;;;;4.00;2.98;;;;;;;24.92;10.19;102067.18;1942688;100;25798;-84
2022/03/10 11:40:39;;;;;;;4.37;3.98;;;;;;;24.56;10.13;102071.03;1959604;99;25803;-92
2022/03/10 11:44:14;;;;;;;4.72;2.55;;;;;;;23.96;10.18;102074.03;1851751;104;25874;-83
2022/03/10 11:47:42;;;;;;;2.20;1.85;;;;;;;23.59;10.37;102071.52;1849566;102;25909;-84
2022/03/10 11:51:16;;;;;;;3.05;2.22;;;;;;;23.39;10.12;102056.94;1928348;100;25337;-76
2022/03/10 11:54:40;;;;;;;3.80;1.90;;;;;;;22.98;9.96;102063.64;1920503;102;25325;-75
2022/03/10 11:58:04;;;;;;;4.67;2.25;;;;;;;22.62;10.14;102054.77;1891637;104;26406;-79
2022/03/10 12:01:28;;;;;;;2.17;1.90;;;;;;;22.38;10.18;102054.31;1893221;104;26510;-79
2022/03/10 12:04:55;;;;;;;4.03;2.20;;;;;;;22.13;10.29;102048.01;1894948;102;26017;-74
2022/03/10 12:08:32;;;;;;;2.50;1.72;;;;;;;22.07;10.50;102049.31;1930582;99;25853;-79
2022/03/10 12:11:55;;;;;;;2.98;2.10;;;;;;;22.09;10.65;102051.55;1928895;99;25862;-80
2022/03/10 12:15:41;;;;;;;4.87;1.92;;;;;;;21.82;10.83;102051.02;1958829;99;26404;-78
2022/03/10 12:19:26;;;;;;;3.37;2.42;;;;;;;21.75;10.88;102049.23;1986080;93;25812;-74
2022/03/10 12:23:15;;;;;;;3.40;2.15;;;;;;;21.75;10.92;102051.88;2090779;94;25910;-78
2022/03/10 12:26:47;;;;;;;2.70;2.37;;;;;;;21.63;11.51;102052.70;2090376;94;25709;-78
2022/03/10 12:30:24;;;;;;;2.45;2.15;;;;;;;22.01;11.36;102046.67;2107736;93;25758;-78
2022/03/10 12:34:00;;;;;;;2.10;1.80;;;;;;;21.97;11.59;102049.76;2072518;95;25906;-78
2022/03/10 12:37:40;;;;;;;3.92;2.00;;;;;;;21.62;10.81;102048.28;2065997;95;25721;-77
2022/03/10 12:41:17;;;;;;;6.25;2.00;;;;;;;20.91;10.88;102046.94;2072731;94;25927;-77
2022/03/10 12:44:56;;;;;;;2.37;2.00;;;;;;;20.81;11.54;102043.77;2040226;95;25578;-78
2022/03/10 12:48:47;;;;;;;3.17;2.67;;;;;;;20.90;11.67;102036.77;2027722;96;25748;-82
2022/03/10 12:52:27;;;;;;;3.90;2.63;;;;;;;21.07;11.75;102034.24;2085007;91;26398;-79
2022/03/10 12:56:10;;;;;;;3.33;2.30;;;;;;;21.25;11.94;102036.11;2196646;89;25768;-78
2022/03/10 12:59:50;;;;;;;3.33;2.35;;;;;;;21.56;11.89;102034.53;2223243;88;25709;-80
2022/03/10 13:03:14;;;;;;;3.02;2.40;;;;;;;21.41;11.65;102034.48;2220068;89;25778;-77
2022/03/10 13:06:47;;;;;;;4.33;3.33;;;;;;;21.26;11.45;102034.34;2223011;87;25804;-78
2022/03/10 13:10:20;;;;;;;10.00;3.45;;;;;;;21.08;11.27;102041.31;2225716;87;25891;-80
2022/03/10 13:14:14;;;;;;;2.33;2.12;;;;;;;20.55;11.62;102036.47;2203841;89;25822;-80
2022/03/10 13:17:47;;;;;;;2.70;2.33;;;;;;;20.47;11.62;102038.14;2202498;88;25993;-82
2022/03/10 13:21:10;;;;;;;7.67;2.37;;;;;;;20.11;11.55;102037.33;2201247;88;25555;-76
2022/03/10 13:28:15;;;;;;;4.37;3.42;;;;;;;20.39;12.45;102035.43;2159815;90;26519;-80
2022/03/10 13:31:40;;;;;;;2.65;2.42;;;;;;;20.73;12.33;102031.34;2082876;91;25831;-80
2022/03/10 13:35:06;;;;;;;4.12;2.42;;;;;;;20.87;12.12;102037.19;2132715;91;25868;-81
2022/03/10 13:38:34;;;;;;;3.37;3.08;;;;;;;20.56;11.63;102034.30;2139225;92;25824;-81
2022/03/10 13:41:59;;;;;;;5.62;4.35;;;;;;;20.26;11.70;102033.09;2134885;91;26783;-81
2022/03/10 13:45:24;;;;;;;3.85;3.42;;;;;;;20.21;11.85;102030.82;2183059;87;25786;-77
2022/03/10 13:49:09;;;;;;;4.12;3.22;;;;;;;20.26;13.85;102027.80;2138502;91;25766;-80
2022/03/10 13:52:38;;;;;;;6.67;2.83;;;;;;;21.00;13.92;102032.42;2194692;89;25754;-75
2022/03/10 13:56:05;;;;;;;6.83;3.30;;;;;;;21.73;14.12;102035.05;2172396;89;25797;-78
2022/03/10 13:59:33;;;;;;;3.22;2.85;;;;;;;22.26;14.24;102029.03;2152085;89;25976;-77
2022/03/10 14:03:01;;;;;;;3.58;3.27;;;;;;;22.70;14.24;102030.84;2173082;91;26485;-77
2022/03/10 14:06:35;;;;;;;2.80;2.50;;;;;;;23.02;14.40;102030.41;2075335;93;25840;-77
2022/03/10 14:10:07;;;;;;;3.52;2.30;;;;;;;23.28;14.25;102030.77;2040176;91;25399;-75
2022/03/10 14:13:33;;;;;;;2.83;2.30;;;;;;;23.49;14.20;102036.46;2017986;96;25731;-77
2022/03/10 14:16:57;;;;;;;2.90;2.60;;;;;;;23.84;14.18;102035.03;1999758;97;26207;-80
2022/03/10 14:24:02;;;;;;;3.17;2.50;;;;;;;23.95;14.04;102019.86;2008517;94;25806;-75
2022/03/10 14:27:39;;;;;;;2.33;2.10;;;;;;;23.65;13.50;102026.20;2109667;91;26117;-75
2022/03/10 14:31:11;;;;;;;2.20;2.00;;;;;;;23.00;13.23;102016.20;2119849;91;25821;-76
2022/03/10 14:34:47;;;;;;;4.62;2.50;;;;;;;22.25;12.93;102012.22;2152683;90;26530;-75
2022/03/10 14:38:27;;;;;;;2.83;2.45;;;;;;;21.60;12.76;102015.11;2189275;89;25756;-75
2022/03/10 14:42:03;;;;;;;4.58;3.40;;;;;;;20.94;12.80;102016.47;2131441;91;26001;-78
2022/03/10 14:45:30;;;;;;;7.22;4.10;;;;;;;20.31;12.90;102014.59;2097002;92;25724;-75
2022/03/10 14:49:08;;;;;;;6.00;3.70;;;;;;;19.67;13.03;102016.53;2131825;91;25929;-74
2022/03/10 14:52:43;;;;;;;;;;;;;;;;;;;;;
2022/03/10 14:56:11;;;;;;;7.72;3.75;;;;;;;18.51;13.29;102015.66;2264828;87;25577;-74
2022/03/10 15:03:31;;;;;;;4.58;3.80;;;;;;;17.42;13.80;102011.79;2160119;90;25837;-78
2022/03/10 15:06:53;;;;;;;11.43;4.37;;;;;;;16.91;13.95;102020.30;2077292;94;25750;-76
2022/03/10 15:10:22;;;;;;;12.35;5.78;;;;;;;16.44;14.16;102025.69;2091051;93;25975;-75
2022/03/10 15:13:48;;;;;;;6.40;4.28;;;;;;;16.07;14.92;102023.38;2032436;97;25915;-78
2022/03/10 15:17:40;;;;;;;;;;;;;;;;;;;;;
2022/03/10 15:21:12;;;;;;;8.90;4.90;;;;;;;15.85;16.34;102021.00;2027090;97;26377;-74
2022/03/10 15:24:43;;;;;;;5.28;3.80;;;;;;;15.57;16.45;102029.38;2088865;94;25831;-74
2022/03/10 15:28:15;;;;;;;7.97;3.98;;;;;;;15.27;16.63;102023.66;2091414;93;25977;-75
2022/03/10 15:31:40;;;;;;;5.78;3.52;;;;;;;15.37;16.96;102025.27;2033535;97;25781;-73
2022/03/10 15:35:07;;;;;;;4.53;3.30;;;;;;;15.27;17.24;102029.34;2093114;94;25803;-78
2022/03/10 15:38:42;;;;;;;6.58;3.33;;;;;;;15.16;17.55;102029.02;2094897;92;26049;-75
2022/03/10 15:42:05;;;;;;;5.67;3.37;;;;;;;15.15;17.56;102030.27;2148968;90;25874;-76
2022/03/10 15:45:28;;;;;;;3.40;3.05;;;;;;;14.80;17.95;102037.92;2189990;88;25868;-76
2022/03/10 15:48:55;;;;;;;5.83;3.85;;;;;;;14.45;18.15;102035.41;2184211;88;25818;-80
2022/03/10 15:52:18;;;;;;;5.80;3.62;;;;;;;14.11;18.36;102036.86;2283812;85;25714;-74
2022/03/10 15:55:55;;;;;;;4.22;3.70;;;;;;;13.85;18.67;102039.84;2278280;85;30825;-75
2022/03/10 15:59:17;;;;;;;6.65;4.87;;;;;;;13.72;19.05;102031.05;2296878;86;26575;-75
2022/03/10 16:03:00;;;;;;;7.72;6.22;;;;;;;13.58;19.42;102042.33;2300840;86;25689;-80
2022/03/10 16:06:32;;;;;;;;;;;;;;;;;;;;;
2022/03/10 16:09:47;;;;;;;6.42;3.80;;;;;;;13.13;19.14;102043.20;2280941;84;25721;-80
2022/03/10 16:13:33;;;;;;;3.27;2.95;;;;;;;12.76;18.70;102050.87;2201024;88;25744;-75
2022/03/10 16:17:04;;;;;;;4.22;3.22;;;;;;;12.40;18.66;102055.86;2278077;85;25754;-74
2022/03/10 16:20:52;;;;;;;5.00;3.42;;;;;;;12.23;18.81;102065.59;2195762;90;25760;-79
2022/03/10 16:24:34;;;;;;;3.25;2.87;;;;;;;12.14;18.85;102068.68;2122240;91;25780;-80
2022/03/10 16:28:05;;;;;;;2.85;2.65;;;;;;;12.03;18.90;102069.52;2105838;93;25764;-76
2022/03/10 16:32:05;;;;;;;4.00;2.70;;;;;;;11.94;18.95;102076.94;2162769;88;25770;-77
2022/03/10 16:35:25;;;;;;;2.52;2.33;;;;;;;11.81;19.05;102078.09;2132369;91;25852;-77
2022/03/10 16:38:49;;;;;;;4.40;3.10;;;;;;;11.70;19.13;102084.94;2133375;91;25975;-76
2022/03/10 16:42:15;;;;;;;2.67;2.40;;;;;;;11.59;19.17;102082.73;2132152;89;25869;-76
2022/03/10 16:45:56;;;;;;;5.22;2.60;;;;;;;11.54;19.29;102081.63;2133335;92;25873;-80
2022/03/10 16:49:29;;;;;;;2.83;2.33;;;;;;;11.59;19.36;102073.58;2129865;91;25778;-75
2022/03/10 16:52:54;;;;;;;3.17;2.52;;;;;;;11.64;19.51;102087.27;2133241;92;26693;-79
2022/03/10 16:56:32;;;;;;;3.90;2.83;;;;;;;11.64;19.61;102092.07;2129953;91;25842;-75
2022/03/10 17:00:00;;;;;;;3.83;2.22;;;;;;;11.61;19.75;102092.34;2133260;91;25769;-79
2022/03/10 17:03:47;;;;;;;;;;;;;;;;;;;;;
2022/03/10 17:07:11;;;;;;;2.58;2.37;;;;;;;11.73;21.67;102104.27;2131512;91;26034;-78
2022/03/10 17:10:32;;;;;;;5.87;2.87;;;;;;;11.68;21.92;102105.78;2098977;92;25847;-78
2022/03/10 17:14:00;;;;;;;3.52;2.55;;;;;;;11.61;22.01;102101.10;2101228;94;25896;-76
2022/03/10 17:17:35;;;;;;;4.03;2.87;;;;;;;11.57;22.13;102111.79;2134210;91;25754;-77
2022/03/10 17:21:02;;;;;;;3.92;2.27;;;;;;;11.52;22.11;102108.50;2176721;90;25769;-76
2022/03/10 17:24:37;;;;;;;2.42;2.22;;;;;;;11.47;22.15;102112.59;2106951;93;25719;-75
2022/03/10 17:28:00;;;;;;;2.45;1.85;;;;;;;11.42;22.19;102107.58;2189781;89;25778;-77
2022/03/10 17:31:28;;;;;;;3.25;2.62;;;;;;;11.37;22.18;102106.45;2323727;82;25760;-76
2022/03/10 17:34:54;;;;;;;4.05;2.47;;;;;;;11.31;22.17;102112.30;2361751;82;26392;-76
2022/03/10 17:38:29;;;;;;;1.98;1.77;;;;;;;11.26;22.20;102117.69;2362082;83;25631;-76
2022/03/10 17:42:18;;;;;;;2.52;2.12;;;;;;;11.22;22.21;102127.50;2361582;82;25690;-76
2022/03/10 17:45:38;;;;;;;3.22;2.40;;;;;;;11.15;22.25;102126.72;2361448;82;25614;-77
2022/03/10 17:49:13;;;;;;;3.27;2.62;;;;;;;11.10;22.31;102126.09;2361492;83;25711;-76
2022/03/10 17:52:45;;;;;;;3.62;2.20;;;;;;;11.05;22.33;102126.67;2358969;83;25921;-80
2022/03/10 17:56:14;;;;;;;2.35;2.05;;;;;;;11.00;22.35;102127.77;2362011;82;25538;-76
2022/03/10 17:59:42;;;;;;;3.42;2.60;;;;;;;10.94;22.39;102135.28;2362085;82;25215;-77